createdAt,value
2022-09-26T00:01:43.577Z,17.06
2022-09-26T00:04:23.667Z,16.18
2022-09-26T00:06:55.342Z,15.07
2022-09-26T00:09:28.436Z,14.25
2022-09-26T00:11:58.116Z,13.59
2022-09-26T00:14:30.096Z,13.47
2022-09-26T00:16:58.208Z,14.95
2022-09-26T00:19:26.059Z,16.20
2022-09-26T00:21:57.448Z,16.99
2022-09-26T00:24:25.230Z,16.91
2022-09-26T00:26:53.491Z,15.59
2022-09-26T00:29:21.479Z,14.50
2022-09-26T00:31:49.332Z,13.71
2022-09-26T00:34:19.907Z,13.46
2022-09-26T00:36:47.717Z,14.68
2022-09-26T00:39:16.636Z,15.41
2022-09-26T00:41:45.944Z,14.79
2022-09-26T00:44:49.331Z,13.94
2022-09-26T00:48:06.627Z,13.20
2022-09-26T00:50:41.700Z,12.65
2022-09-26T00:53:20.629Z,12.77
2022-09-26T00:56:06.239Z,14.47
2022-09-26T00:58:43.119Z,15.82
2022-09-26T01:01:13.706Z,16.55
2022-09-26T01:03:45.921Z,16.21
2022-09-26T01:06:16.619Z,15.08
2022-09-26T01:08:53.805Z,14.13
2022-09-26T01:11:22.998Z,13.40
2022-09-26T01:13:53.630Z,12.88
2022-09-26T01:16:22.151Z,12.93
2022-09-26T01:18:51.363Z,14.50
2022-09-26T01:21:48.301Z,15.85
2022-09-26T01:25:13.334Z,16.34
2022-09-26T01:28:06.425Z,14.95
2022-09-26T01:30:58.203Z,13.96
2022-09-26T01:33:54.571Z,13.23
2022-09-26T01:36:48.496Z,13.21
2022-09-26T01:40:02.657Z,15.00
2022-09-26T01:42:51.529Z,16.40
2022-09-26T01:45:24.431Z,16.62
2022-09-26T01:48:06.185Z,15.50
2022-09-26T01:50:34.948Z,14.29
2022-09-26T01:53:35.380Z,13.46
2022-09-26T01:56:18.933Z,13.43
2022-09-26T01:59:19.508Z,15.14
2022-09-26T02:01:51.841Z,16.50
2022-09-26T02:04:37.824Z,16.71
2022-09-26T02:07:29.246Z,15.45
2022-09-26T02:10:06.357Z,14.14
2022-09-26T02:12:39.617Z,13.28
2022-09-26T02:15:13.143Z,13.14
2022-09-26T02:17:46.803Z,14.63
2022-09-26T02:20:24.548Z,15.95
2022-09-26T02:22:53.001Z,16.42
2022-09-26T02:25:21.072Z,15.36
2022-09-26T02:27:50.441Z,14.26
2022-09-26T02:30:20.046Z,13.44
2022-09-26T02:32:48.340Z,13.20
2022-09-26T02:35:35.972Z,14.52
2022-09-26T02:38:05.727Z,15.91
2022-09-26T02:40:51.376Z,16.28
2022-09-26T02:44:04.110Z,15.15
2022-09-26T02:47:13.040Z,13.74
2022-09-26T02:50:25.834Z,12.85
2022-09-26T02:53:58.120Z,13.09
2022-09-26T02:57:27.094Z,15.03
2022-09-26T03:00:19.255Z,16.24
2022-09-26T03:02:59.648Z,16.35
2022-09-26T03:05:31.091Z,15.14
2022-09-26T03:08:08.313Z,14.10
2022-09-26T03:10:40.190Z,13.29
2022-09-26T03:13:14.447Z,13.11
2022-09-26T03:15:49.325Z,14.54
2022-09-26T03:18:24.997Z,15.74
2022-09-26T03:20:55.822Z,16.12
2022-09-26T03:23:26.572Z,15.11
2022-09-26T03:26:18.453Z,14.01
2022-09-26T03:28:46.395Z,13.16
2022-09-26T03:31:14.919Z,13.90
2022-09-26T03:33:43.096Z,15.31
2022-09-26T03:36:10.874Z,16.35
2022-09-26T03:38:40.238Z,16.51
2022-09-26T03:41:11.351Z,15.50
2022-09-26T03:43:44.063Z,14.29
2022-09-26T03:46:12.839Z,13.43
2022-09-26T03:48:41.550Z,13.23
2022-09-26T03:51:14.834Z,14.64
2022-09-26T03:53:47.180Z,15.91
2022-09-26T03:56:20.211Z,16.57
2022-09-26T03:58:49.206Z,15.79
2022-09-26T04:01:22.046Z,14.63
2022-09-26T04:03:51.419Z,13.72
2022-09-26T04:06:21.171Z,13.49
2022-09-26T04:08:52.794Z,14.89
2022-09-26T04:11:24.561Z,16.23
2022-09-26T04:13:54.217Z,16.67
2022-09-26T04:16:24.150Z,15.63
2022-09-26T04:18:57.639Z,14.46
2022-09-26T04:21:27.377Z,13.54
2022-09-26T04:23:56.490Z,13.33
2022-09-26T04:26:25.832Z,14.76
2022-09-26T04:28:57.973Z,16.09
2022-09-26T04:31:28.222Z,16.97
2022-09-26T04:33:56.309Z,17.11
2022-09-26T04:36:24.700Z,15.90
2022-09-26T04:38:52.802Z,14.72
2022-09-26T04:41:22.083Z,13.84
2022-09-26T04:43:50.439Z,13.60
2022-09-26T04:46:25.849Z,15.06
2022-09-26T04:49:01.314Z,16.44
2022-09-26T04:51:32.834Z,17.13
2022-09-26T04:54:00.848Z,17.30
2022-09-26T04:56:29.898Z,16.25
2022-09-26T04:59:00.268Z,15.03
2022-09-26T05:01:28.829Z,14.08
2022-09-26T05:03:58.598Z,13.76
2022-09-26T05:06:26.543Z,14.91
2022-09-26T05:08:54.897Z,15.94
2022-09-26T05:11:23.013Z,16.73
2022-09-26T05:13:53.960Z,17.01
2022-09-26T05:16:24.160Z,15.96
2022-09-26T05:18:53.485Z,14.84
2022-09-26T05:21:21.357Z,14.00
2022-09-26T05:24:10.046Z,13.90
2022-09-26T05:26:51.492Z,15.56
2022-09-26T05:29:20.594Z,16.75
2022-09-26T05:31:49.727Z,16.95
2022-09-26T05:34:20.140Z,16.01
2022-09-26T05:36:48.633Z,14.81
2022-09-26T05:39:40.252Z,13.89
2022-09-26T05:42:10.631Z,13.76
2022-09-26T05:44:39.185Z,15.17
2022-09-26T05:47:08.837Z,16.32
2022-09-26T05:49:36.912Z,17.05
2022-09-26T05:52:05.107Z,17.54
2022-09-26T05:54:33.194Z,17.57
2022-09-26T05:57:01.614Z,16.48
2022-09-26T05:59:29.278Z,15.35
2022-09-26T06:02:00.953Z,14.52
2022-09-26T06:04:29.696Z,15.15
2022-09-26T06:06:57.556Z,16.25
2022-09-26T06:09:26.626Z,17.14
2022-09-26T06:11:54.689Z,17.63
2022-09-26T06:14:25.711Z,17.63
2022-09-26T06:16:53.495Z,16.44
2022-09-26T06:19:24.998Z,15.25
2022-09-26T06:21:53.203Z,14.72
2022-09-26T06:24:21.254Z,15.83
2022-09-26T06:26:49.874Z,16.94
2022-09-26T06:29:17.799Z,17.34
2022-09-26T06:31:46.834Z,16.44
2022-09-26T06:34:16.846Z,15.34
2022-09-26T06:36:47.809Z,14.80
2022-09-26T06:39:16.057Z,15.89
2022-09-26T06:41:46.539Z,16.88
2022-09-26T06:44:14.645Z,17.52
2022-09-26T06:46:43.195Z,17.56
2022-09-26T06:49:12.670Z,16.34
2022-09-26T06:51:41.146Z,15.21
2022-09-26T06:54:15.864Z,15.00
2022-09-26T06:56:44.167Z,15.92
2022-09-26T06:59:18.224Z,16.69
2022-09-26T07:01:48.701Z,17.13
2022-09-26T07:04:17.654Z,16.74
2022-09-26T07:06:45.435Z,15.61
2022-09-26T07:09:13.227Z,14.95
2022-09-26T07:12:13.031Z,15.80
2022-09-26T07:14:36.040Z,16.61
2022-09-26T07:17:03.839Z,17.19
2022-09-26T07:19:32.930Z,17.03
2022-09-26T07:22:00.948Z,15.89
2022-09-26T07:24:29.618Z,15.33
2022-09-26T07:26:57.345Z,16.29
2022-09-26T07:29:25.809Z,17.16
2022-09-26T07:31:54.654Z,17.44
2022-09-26T07:34:25.954Z,16.41
2022-09-26T07:36:54.242Z,15.62
2022-09-26T07:39:21.940Z,16.50
2022-09-26T07:41:52.580Z,16.98
2022-09-26T07:47:29.330Z,16.37
2022-09-26T07:50:13.511Z,15.37
2022-09-26T07:52:48.410Z,16.31
2022-09-26T07:55:19.316Z,17.04
2022-09-26T07:57:48.350Z,17.30
2022-09-26T08:00:19.828Z,17.25
2022-09-26T08:02:48.013Z,16.03
2022-09-26T08:05:20.344Z,15.59
2022-09-26T08:07:51.921Z,16.32
2022-09-26T08:10:24.139Z,17.04
2022-09-26T08:12:51.823Z,17.37
2022-09-26T08:15:21.869Z,16.77
2022-09-26T08:17:49.671Z,15.74
2022-09-26T08:20:18.648Z,16.30
2022-09-26T08:22:46.360Z,17.18
2022-09-26T08:25:14.386Z,17.40
2022-09-26T08:27:43.845Z,16.71
2022-09-26T08:30:11.998Z,15.46
2022-09-26T08:32:40.128Z,15.53
2022-09-26T08:35:12.307Z,16.61
2022-09-26T08:37:40.447Z,17.03
2022-09-26T08:40:08.938Z,17.34
2022-09-26T08:43:14.235Z,17.72
2022-09-26T08:46:12.988Z,17.33
2022-09-26T08:49:19.204Z,15.80
2022-09-26T08:51:52.189Z,16.00
2022-09-26T08:54:40.165Z,16.78
2022-09-26T08:57:43.934Z,16.90
2022-09-26T09:00:25.918Z,17.53
2022-09-26T09:03:18.905Z,17.59
2022-09-26T09:05:53.779Z,16.37
2022-09-26T09:08:37.486Z,15.51
2022-09-26T09:11:51.560Z,16.44
2022-09-26T09:15:23.274Z,17.22
2022-09-26T09:18:16.543Z,17.61
2022-09-26T09:21:22.862Z,17.75
2022-09-26T09:24:16.345Z,16.26
2022-09-26T09:30:40.681Z,17.09
2022-09-26T09:33:48.282Z,17.83
2022-09-26T09:36:28.949Z,17.55
2022-09-26T09:39:07.779Z,16.19
2022-09-26T09:41:51.274Z,16.75
2022-09-26T09:44:40.107Z,17.38
2022-09-26T09:47:15.429Z,17.78
2022-09-26T09:49:47.735Z,18.24
2022-09-26T09:52:39.778Z,17.92
2022-09-26T09:55:20.588Z,16.43
2022-09-26T09:58:29.914Z,15.89
2022-09-26T10:01:41.840Z,17.11
2022-09-26T10:04:44.546Z,17.46
2022-09-26T10:07:13.350Z,17.66
2022-09-26T10:09:46.346Z,17.82
2022-09-26T10:12:30.724Z,17.89
2022-09-26T10:15:10.072Z,18.30
2022-09-26T10:17:39.373Z,17.13
2022-09-26T10:20:35.649Z,16.27
2022-09-26T10:23:16.897Z,16.85
2022-09-26T10:25:51.923Z,17.61
2022-09-26T10:28:38.344Z,17.79
2022-09-26T10:31:12.055Z,18.05
2022-09-26T10:33:45.436Z,18.39
2022-09-26T10:36:28.742Z,17.74
2022-09-26T10:39:46.383Z,16.40
2022-09-26T10:42:20.256Z,17.35
2022-09-26T10:44:50.784Z,17.85
2022-09-26T10:47:25.143Z,17.94
2022-09-26T10:50:09.900Z,18.03
2022-09-26T10:52:52.450Z,16.63
2022-09-26T10:55:41.249Z,16.36
2022-09-26T10:58:18.468Z,17.05
2022-09-26T11:00:52.425Z,18.00
2022-09-26T11:03:44.176Z,18.27
2022-09-26T11:06:45.548Z,18.17
2022-09-26T11:09:20.806Z,16.61
2022-09-26T11:11:51.425Z,16.29
2022-09-26T11:14:32.804Z,17.15
2022-09-26T11:17:03.129Z,17.96
2022-09-26T11:19:56.318Z,18.35
2022-09-26T11:22:42.600Z,17.41
2022-09-26T11:25:26.998Z,16.55
2022-09-26T11:28:15.123Z,17.64
2022-09-26T11:30:52.648Z,18.19
2022-09-26T11:33:21.263Z,18.22
2022-09-26T11:36:15.041Z,16.83
2022-09-26T11:39:31.053Z,17.04
2022-09-26T11:42:30.241Z,18.32
2022-09-26T11:45:12.950Z,18.66
2022-09-26T11:48:06.731Z,17.17
2022-09-26T11:51:07.071Z,16.85
2022-09-26T11:54:07.086Z,18.04
2022-09-26T11:57:02.854Z,19.22
2022-09-26T11:59:37.895Z,18.13
2022-09-26T12:02:32.300Z,16.79
2022-09-26T12:05:29.385Z,16.64
2022-09-26T12:08:32.990Z,18.27
2022-09-26T12:11:45.709Z,19.35
2022-09-26T12:14:25.555Z,18.10
2022-09-26T12:17:19.688Z,16.73
2022-09-26T12:20:02.618Z,17.12
2022-09-26T12:23:02.875Z,18.63
2022-09-26T12:26:22.359Z,18.86
2022-09-26T12:29:14.365Z,16.85
2022-09-26T12:32:14.646Z,17.17
2022-09-26T12:35:07.580Z,18.15
2022-09-26T12:37:58.825Z,18.61
2022-09-26T12:41:18.790Z,18.43
2022-09-26T12:44:45.357Z,16.78
2022-09-26T12:48:00.785Z,17.14
2022-09-26T12:51:11.864Z,18.57
2022-09-26T12:53:48.845Z,18.15
2022-09-26T12:57:13.898Z,16.92
2022-09-26T13:00:23.318Z,16.52
2022-09-26T13:03:27.762Z,17.71
2022-09-26T13:06:23.296Z,18.24
2022-09-26T13:09:33.533Z,18.55
2022-09-26T13:12:04.322Z,17.14
2022-09-26T13:15:06.334Z,16.52
2022-09-26T13:17:42.848Z,17.30
2022-09-26T13:20:41.184Z,17.73
2022-09-26T13:23:32.915Z,18.17
2022-09-26T13:26:14.592Z,18.16
2022-09-26T13:29:16.366Z,17.24
2022-09-26T13:31:55.501Z,16.43
2022-09-26T13:34:27.747Z,17.08
2022-09-26T13:36:59.737Z,17.51
2022-09-26T13:40:00.561Z,17.95
2022-09-26T13:43:05.015Z,18.27
2022-09-26T13:45:46.723Z,18.53
2022-09-26T13:48:55.811Z,17.80
2022-09-26T13:51:40.127Z,16.62
2022-09-26T13:54:29.792Z,17.12
2022-09-26T13:56:58.337Z,17.64
2022-09-26T13:59:34.623Z,17.82
2022-09-26T14:02:29.942Z,18.17
2022-09-26T14:05:20.003Z,18.76
2022-09-26T14:08:12.108Z,17.69
2022-09-26T14:10:52.540Z,16.36
2022-09-26T14:13:38.425Z,16.42
2022-09-26T14:16:28.999Z,17.46
2022-09-26T14:19:16.028Z,18.29
2022-09-26T14:22:26.318Z,18.44
2022-09-26T14:24:57.246Z,17.34
2022-09-26T14:27:36.363Z,16.72
2022-09-26T14:30:30.482Z,17.65
2022-09-26T14:33:10.301Z,18.23
2022-09-26T14:35:39.845Z,18.59
2022-09-26T14:38:17.132Z,17.88
2022-09-26T14:40:59.656Z,16.75
2022-09-26T14:43:31.255Z,16.94
2022-09-26T14:46:17.905Z,17.64
2022-09-26T14:48:47.077Z,18.09
2022-09-26T14:51:19.291Z,18.20
2022-09-26T14:53:50.125Z,18.29
2022-09-26T14:56:30.016Z,17.97
2022-09-26T14:59:16.289Z,17.96
2022-09-26T15:01:46.596Z,18.49
2022-09-26T15:04:29.501Z,17.62
2022-09-26T15:07:18.818Z,16.68
2022-09-26T15:10:02.228Z,17.58
2022-09-26T15:12:48.291Z,18.12
2022-09-26T15:15:50.609Z,18.24
2022-09-26T15:18:27.865Z,18.10
2022-09-26T15:21:23.205Z,18.30
2022-09-26T15:23:55.530Z,18.87
2022-09-26T15:26:35.855Z,18.11
2022-09-26T15:29:09.043Z,16.79
2022-09-26T15:31:48.128Z,16.23
2022-09-26T15:34:22.892Z,16.89
2022-09-26T15:36:57.173Z,17.65
2022-09-26T15:39:31.447Z,17.96
2022-09-26T15:42:24.553Z,17.96
2022-09-26T15:44:59.037Z,18.17
2022-09-26T15:47:39.725Z,18.53
2022-09-26T15:50:40.582Z,18.32
2022-09-26T15:53:39.738Z,16.79
2022-09-26T15:56:26.850Z,17.17
2022-09-26T15:59:14.477Z,17.74
2022-09-26T16:01:49.347Z,18.17
2022-09-26T16:04:29.446Z,18.52
2022-09-26T16:07:15.459Z,17.73
2022-09-26T16:09:51.357Z,16.79
2022-09-26T16:12:22.871Z,17.46
2022-09-26T16:15:06.104Z,17.70
2022-09-26T16:17:40.448Z,18.42
2022-09-26T16:20:30.764Z,18.55
2022-09-26T16:23:05.673Z,17.14
2022-09-26T16:25:40.029Z,17.04
2022-09-26T16:28:10.231Z,17.79
2022-09-26T16:31:06.990Z,18.26
2022-09-26T16:33:40.341Z,18.62
2022-09-26T16:36:30.984Z,18.12
2022-09-26T16:39:21.956Z,16.83
2022-09-26T16:42:02.866Z,17.39
2022-09-26T16:44:37.759Z,18.36
2022-09-26T16:47:39.921Z,18.76
2022-09-26T16:50:33.310Z,18.54
2022-09-26T16:53:06.389Z,17.04
2022-09-26T16:55:37.658Z,16.82
2022-09-26T16:58:06.332Z,17.81
2022-09-26T17:00:54.474Z,18.36
2022-09-26T17:03:30.279Z,18.61
2022-09-26T17:06:00.591Z,18.50
2022-09-26T17:08:29.153Z,17.38
2022-09-26T17:11:02.997Z,16.40
2022-09-26T17:13:35.397Z,17.10
2022-09-26T17:16:03.891Z,17.92
2022-09-26T17:18:33.969Z,18.41
2022-09-26T17:21:01.935Z,18.56
2022-09-26T17:23:40.478Z,18.57
2022-09-26T17:26:24.105Z,18.75
2022-09-26T17:28:54.198Z,17.55
2022-09-26T17:31:23.687Z,16.50
2022-09-26T17:33:54.272Z,16.89
2022-09-26T17:36:28.090Z,17.71
2022-09-26T17:38:59.562Z,18.20
2022-09-26T17:41:29.770Z,18.68
2022-09-26T17:44:01.124Z,19.08
2022-09-26T17:46:30.264Z,18.51
2022-09-26T17:48:59.441Z,17.17
2022-09-26T17:51:27.930Z,16.69
2022-09-26T17:53:57.578Z,17.59
2022-09-26T17:56:26.388Z,18.03
2022-09-26T17:58:57.280Z,18.36
2022-09-26T18:01:34.958Z,18.42
2022-09-26T18:04:07.645Z,18.73
2022-09-26T18:06:37.045Z,18.60
2022-09-26T18:09:10.413Z,17.49
2022-09-26T18:11:41.783Z,16.65
2022-09-26T18:14:19.786Z,17.28
2022-09-26T18:16:47.624Z,17.88
2022-09-26T18:19:15.556Z,17.85
2022-09-26T18:21:43.683Z,18.01
2022-09-26T18:24:19.920Z,18.06
2022-09-26T18:26:54.026Z,18.29
2022-09-26T18:29:37.458Z,18.13
2022-09-26T18:32:27.131Z,17.77
2022-09-26T18:34:58.733Z,18.04
2022-09-26T18:37:27.076Z,18.15
2022-09-26T18:39:58.971Z,18.18
2022-09-26T18:42:29.709Z,18.20
2022-09-26T18:45:06.713Z,18.36
2022-09-26T18:47:44.038Z,18.74
2022-09-26T18:50:36.543Z,18.97
2022-09-26T18:53:14.512Z,18.19
2022-09-26T18:56:02.664Z,17.37
2022-09-26T18:58:34.197Z,18.14
2022-09-26T19:01:08.192Z,18.52
2022-09-26T19:03:38.937Z,18.51
2022-09-26T19:06:30.245Z,18.38
2022-09-26T19:09:05.120Z,18.86
2022-09-26T19:11:35.296Z,19.07
2022-09-26T19:14:20.198Z,19.10
2022-09-26T19:16:50.141Z,19.19
2022-09-26T19:19:19.108Z,18.57
2022-09-26T19:21:59.586Z,17.50
2022-09-26T19:24:36.744Z,17.93
2022-09-26T19:27:13.691Z,18.43
2022-09-26T19:30:18.532Z,18.88
2022-09-26T19:32:53.292Z,18.62
2022-09-26T19:35:33.017Z,18.85
2022-09-26T19:38:06.485Z,19.18
2022-09-26T19:40:34.908Z,18.38
2022-09-26T19:43:04.623Z,17.45
2022-09-26T19:45:35.100Z,18.04
2022-09-26T19:48:05.728Z,18.61
2022-09-26T19:50:35.771Z,19.07
2022-09-26T19:53:14.541Z,19.28
2022-09-26T19:55:42.769Z,18.23
2022-09-26T19:58:21.621Z,17.39
2022-09-26T20:00:54.712Z,18.28
2022-09-26T20:03:31.255Z,18.84
2022-09-26T20:05:59.203Z,19.12
2022-09-26T20:08:31.929Z,18.15
2022-09-26T20:11:00.185Z,17.27
2022-09-26T20:13:48.122Z,17.80
2022-09-26T20:16:17.452Z,18.72
2022-09-26T20:18:48.848Z,18.91
2022-09-26T20:21:26.508Z,18.84
2022-09-26T20:23:57.658Z,19.17
2022-09-26T20:26:25.644Z,18.32
2022-09-26T20:28:54.727Z,17.35
2022-09-26T20:31:29.374Z,18.07
2022-09-26T20:34:00.147Z,18.71
2022-09-26T20:36:32.904Z,19.07
2022-09-26T20:39:06.463Z,19.12
2022-09-26T20:41:38.719Z,17.95
2022-09-26T20:44:21.461Z,17.49
2022-09-26T20:46:56.411Z,18.35
2022-09-26T20:49:35.700Z,18.66
2022-09-26T20:52:04.914Z,18.91
2022-09-26T20:54:33.613Z,19.28
2022-09-26T20:57:01.518Z,18.98
2022-09-26T20:59:29.665Z,17.86
2022-09-26T21:02:00.455Z,17.27
2022-09-26T21:04:33.038Z,17.96
2022-09-26T21:07:00.987Z,18.38
2022-09-26T21:09:28.792Z,18.65
2022-09-26T21:11:57.962Z,19.11
2022-09-26T21:14:25.933Z,18.60
2022-09-26T21:16:54.605Z,17.43
2022-09-26T21:19:24.724Z,17.55
2022-09-26T21:21:54.199Z,18.18
2022-09-26T21:24:32.849Z,18.92
2022-09-26T21:27:02.174Z,19.26
2022-09-26T21:29:30.207Z,18.96
2022-09-26T21:32:04.494Z,17.69
2022-09-26T21:34:34.799Z,16.97
2022-09-26T21:37:03.912Z,17.79
2022-09-26T21:39:31.809Z,18.42
2022-09-26T21:42:04.656Z,18.89
2022-09-26T21:45:04.290Z,19.42
2022-09-26T21:47:32.249Z,18.52
2022-09-26T21:50:00.318Z,17.32
2022-09-26T21:52:37.233Z,17.07
2022-09-26T21:55:13.141Z,18.14
2022-09-26T21:57:46.542Z,18.95
2022-09-26T22:00:15.625Z,19.17
2022-09-26T22:02:43.418Z,19.40
2022-09-26T22:05:13.223Z,19.05
2022-09-26T22:07:41.035Z,17.68
2022-09-26T22:10:09.071Z,17.69
2022-09-26T22:12:36.934Z,18.06
2022-09-26T22:15:07.877Z,18.49
2022-09-26T22:17:35.864Z,18.92
2022-09-26T22:20:05.113Z,18.95
2022-09-26T22:22:33.353Z,19.37
2022-09-26T22:25:04.061Z,19.10
2022-09-26T22:27:35.229Z,17.66
2022-09-26T22:30:05.741Z,17.03
2022-09-26T22:32:34.093Z,17.56
2022-09-26T22:35:02.260Z,18.24
2022-09-26T22:37:29.982Z,18.71
2022-09-26T22:39:58.434Z,18.99
2022-09-26T22:42:26.104Z,18.84
2022-09-26T22:44:53.969Z,17.52
2022-09-26T22:47:22.435Z,17.58
2022-09-26T22:49:50.241Z,18.33
2022-09-26T22:52:18.178Z,18.60
2022-09-26T22:54:46.074Z,19.15
2022-09-26T22:57:16.325Z,18.87
2022-09-26T22:59:44.063Z,17.53
2022-09-26T23:02:12.757Z,17.02
2022-09-26T23:04:49.911Z,18.02
2022-09-26T23:07:20.213Z,18.72
2022-09-26T23:09:48.305Z,19.08
2022-09-26T23:12:16.262Z,19.03
2022-09-26T23:14:44.109Z,17.85
2022-09-26T23:17:13.894Z,17.03
2022-09-26T23:19:42.223Z,17.52
2022-09-26T23:22:10.226Z,18.17
2022-09-26T23:24:38.060Z,18.61
2022-09-26T23:27:06.118Z,18.74
2022-09-26T23:29:34.140Z,18.79
2022-09-26T23:32:01.890Z,18.43
2022-09-26T23:34:29.750Z,17.17
2022-09-26T23:36:57.641Z,16.83
2022-09-26T23:39:25.496Z,17.72
2022-09-26T23:41:53.324Z,18.38
2022-09-26T23:44:21.138Z,18.56
2022-09-26T23:46:49.153Z,18.57
2022-09-26T23:49:16.882Z,18.78
2022-09-26T23:51:44.710Z,17.95
2022-09-26T23:54:14.433Z,16.96
2022-09-26T23:56:42.304Z,17.51
2022-09-26T23:59:10.046Z,18.23
